sensor_id;sensor_type;location;lat;lon;timestamp;P1;durP1;ratioP1;P2;durP2;ratioP2
38611;SDS011;24368;52.156;20.788;2023-07-16T00:03:56;6.10;;;5.50;;
38611;SDS011;24368;52.156;20.788;2023-07-16T00:08:57;5.80;;;5.00;;
38611;SDS011;24368;52.156;20.788;2023-07-16T00:13:58;5.70;;;5.20;;
38611;SDS011;24368;52.156;20.788;2023-07-16T00:19:00;5.90;;;5.00;;
38611;SDS011;24368;52.156;20.788;2023-07-16T00:24:01;5.50;;;4.70;;
38611;SDS011;24368;52.156;20.788;2023-07-16T00:29:02;5.50;;;5.10;;
38611;SDS011;24368;52.156;20.788;2023-07-16T00:34:03;5.90;;;5.50;;
38611;SDS011;24368;52.156;20.788;2023-07-16T00:39:04;6.00;;;5.40;;
38611;SDS011;24368;52.156;20.788;2023-07-16T00:44:06;5.60;;;5.20;;
38611;SDS011;24368;52.156;20.788;2023-07-16T00:49:08;6.70;;;5.60;;
38611;SDS011;24368;52.156;20.788;2023-07-16T00:54:09;5.40;;;5.00;;
38611;SDS011;24368;52.156;20.788;2023-07-16T00:59:10;5.70;;;5.20;;
38611;SDS011;24368;52.156;20.788;2023-07-16T01:04:11;6.80;;;5.80;;
38611;SDS011;24368;52.156;20.788;2023-07-16T01:09:16;5.60;;;5.10;;
38611;SDS011;24368;52.156;20.788;2023-07-16T01:14:19;5.60;;;5.20;;
38611;SDS011;24368;52.156;20.788;2023-07-16T01:19:22;5.60;;;5.20;;
38611;SDS011;24368;52.156;20.788;2023-07-16T01:24:31;7.10;;;6.40;;
38611;SDS011;24368;52.156;20.788;2023-07-16T01:30:02;5.40;;;4.90;;
38611;SDS011;24368;52.156;20.788;2023-07-16T01:35:05;5.50;;;4.90;;
38611;SDS011;24368;52.156;20.788;2023-07-16T01:40:08;5.80;;;5.30;;
38611;SDS011;24368;52.156;20.788;2023-07-16T01:45:10;5.20;;;4.80;;
38611;SDS011;24368;52.156;20.788;2023-07-16T01:50:11;6.20;;;5.70;;
38611;SDS011;24368;52.156;20.788;2023-07-16T01:55:12;5.90;;;5.50;;
38611;SDS011;24368;52.156;20.788;2023-07-16T02:00:13;6.20;;;5.20;;
38611;SDS011;24368;52.156;20.788;2023-07-16T02:05:15;5.70;;;5.30;;
38611;SDS011;24368;52.156;20.788;2023-07-16T02:10:16;5.60;;;4.80;;
38611;SDS011;24368;52.156;20.788;2023-07-16T02:15:18;5.00;;;4.50;;
38611;SDS011;24368;52.156;20.788;2023-07-16T02:20:19;5.40;;;4.90;;
38611;SDS011;24368;52.156;20.788;2023-07-16T02:25:20;5.90;;;5.40;;
38611;SDS011;24368;52.156;20.788;2023-07-16T02:30:22;5.80;;;5.30;;
38611;SDS011;24368;52.156;20.788;2023-07-16T02:35:23;6.10;;;5.50;;
38611;SDS011;24368;52.156;20.788;2023-07-16T02:40:24;7.70;;;5.70;;
38611;SDS011;24368;52.156;20.788;2023-07-16T02:45:25;6.00;;;5.60;;
38611;SDS011;24368;52.156;20.788;2023-07-16T02:50:26;6.20;;;5.70;;
38611;SDS011;24368;52.156;20.788;2023-07-16T02:55:27;5.90;;;5.40;;
38611;SDS011;24368;52.156;20.788;2023-07-16T03:00:28;8.20;;;5.80;;
38611;SDS011;24368;52.156;20.788;2023-07-16T03:05:29;6.40;;;5.90;;
38611;SDS011;24368;52.156;20.788;2023-07-16T03:10:31;6.20;;;5.70;;
38611;SDS011;24368;52.156;20.788;2023-07-16T03:15:32;6.00;;;5.60;;
38611;SDS011;24368;52.156;20.788;2023-07-16T03:20:33;6.60;;;6.20;;
38611;SDS011;24368;52.156;20.788;2023-07-16T03:25:34;6.70;;;6.20;;
38611;SDS011;24368;52.156;20.788;2023-07-16T03:30:35;6.50;;;6.10;;
38611;SDS011;24368;52.156;20.788;2023-07-16T03:35:38;6.90;;;6.30;;
38611;SDS011;24368;52.156;20.788;2023-07-16T03:40:39;7.60;;;5.90;;
38611;SDS011;24368;52.156;20.788;2023-07-16T03:45:43;6.30;;;5.90;;
38611;SDS011;24368;52.156;20.788;2023-07-16T03:50:46;6.80;;;6.20;;
38611;SDS011;24368;52.156;20.788;2023-07-16T03:55:47;6.20;;;5.60;;
38611;SDS011;24368;52.156;20.788;2023-07-16T04:00:48;6.50;;;5.90;;
38611;SDS011;24368;52.156;20.788;2023-07-16T04:05:49;6.30;;;5.90;;
38611;SDS011;24368;52.156;20.788;2023-07-16T04:10:50;7.90;;;7.10;;
38611;SDS011;24368;52.156;20.788;2023-07-16T04:15:51;8.10;;;7.20;;
38611;SDS011;24368;52.156;20.788;2023-07-16T04:20:55;7.60;;;6.80;;
38611;SDS011;24368;52.156;20.788;2023-07-16T04:25:56;7.70;;;7.10;;
38611;SDS011;24368;52.156;20.788;2023-07-16T04:30:57;7.50;;;6.80;;
38611;SDS011;24368;52.156;20.788;2023-07-16T04:35:58;7.20;;;6.60;;
38611;SDS011;24368;52.156;20.788;2023-07-16T04:40:59;6.90;;;6.30;;
38611;SDS011;24368;52.156;20.788;2023-07-16T04:46:00;8.10;;;7.40;;
38611;SDS011;24368;52.156;20.788;2023-07-16T04:51:01;8.20;;;7.50;;
38611;SDS011;24368;52.156;20.788;2023-07-16T04:56:02;7.10;;;6.40;;
38611;SDS011;24368;52.156;20.788;2023-07-16T05:01:04;7.50;;;6.80;;
38611;SDS011;24368;52.156;20.788;2023-07-16T05:06:05;7.90;;;7.10;;
38611;SDS011;24368;52.156;20.788;2023-07-16T05:11:06;7.40;;;6.80;;
38611;SDS011;24368;52.156;20.788;2023-07-16T05:16:07;7.90;;;7.30;;
38611;SDS011;24368;52.156;20.788;2023-07-16T05:21:08;8.70;;;8.00;;
38611;SDS011;24368;52.156;20.788;2023-07-16T05:26:09;7.70;;;7.10;;
38611;SDS011;24368;52.156;20.788;2023-07-16T05:31:10;7.00;;;6.40;;
38611;SDS011;24368;52.156;20.788;2023-07-16T05:36:12;7.50;;;6.80;;
38611;SDS011;24368;52.156;20.788;2023-07-16T05:41:13;7.70;;;6.90;;
38611;SDS011;24368;52.156;20.788;2023-07-16T05:46:14;7.70;;;7.00;;
38611;SDS011;24368;52.156;20.788;2023-07-16T05:51:15;7.60;;;7.00;;
38611;SDS011;24368;52.156;20.788;2023-07-16T05:56:16;7.00;;;6.30;;
38611;SDS011;24368;52.156;20.788;2023-07-16T06:01:17;7.40;;;6.80;;
38611;SDS011;24368;52.156;20.788;2023-07-16T06:06:18;6.80;;;6.30;;
38611;SDS011;24368;52.156;20.788;2023-07-16T06:11:20;8.20;;;7.60;;
38611;SDS011;24368;52.156;20.788;2023-07-16T06:16:21;7.20;;;6.60;;
38611;SDS011;24368;52.156;20.788;2023-07-16T06:21:22;7.50;;;6.90;;
38611;SDS011;24368;52.156;20.788;2023-07-16T06:26:23;7.30;;;6.80;;
38611;SDS011;24368;52.156;20.788;2023-07-16T06:31:25;7.80;;;7.00;;
38611;SDS011;24368;52.156;20.788;2023-07-16T06:36:26;7.00;;;6.60;;
38611;SDS011;24368;52.156;20.788;2023-07-16T06:41:27;8.40;;;7.70;;
38611;SDS011;24368;52.156;20.788;2023-07-16T06:46:31;8.30;;;7.60;;
38611;SDS011;24368;52.156;20.788;2023-07-16T06:51:32;7.00;;;6.40;;
38611;SDS011;24368;52.156;20.788;2023-07-16T06:56:33;7.30;;;6.40;;
38611;SDS011;24368;52.156;20.788;2023-07-16T07:01:34;10.20;;;9.20;;
38611;SDS011;24368;52.156;20.788;2023-07-16T07:06:36;7.10;;;6.50;;
38611;SDS011;24368;52.156;20.788;2023-07-16T07:11:37;7.70;;;7.10;;
38611;SDS011;24368;52.156;20.788;2023-07-16T07:16:38;6.70;;;6.20;;
38611;SDS011;24368;52.156;20.788;2023-07-16T07:21:40;6.90;;;5.60;;
38611;SDS011;24368;52.156;20.788;2023-07-16T07:26:41;5.70;;;5.30;;
38611;SDS011;24368;52.156;20.788;2023-07-16T07:31:43;4.90;;;4.60;;
38611;SDS011;24368;52.156;20.788;2023-07-16T07:36:44;5.20;;;4.80;;
38611;SDS011;24368;52.156;20.788;2023-07-16T07:41:46;5.20;;;4.70;;
38611;SDS011;24368;52.156;20.788;2023-07-16T07:46:47;5.60;;;5.00;;
38611;SDS011;24368;52.156;20.788;2023-07-16T07:51:48;5.30;;;4.90;;
38611;SDS011;24368;52.156;20.788;2023-07-16T07:56:50;5.30;;;4.80;;
38611;SDS011;24368;52.156;20.788;2023-07-16T08:01:51;5.30;;;4.90;;
38611;SDS011;24368;52.156;20.788;2023-07-16T08:06:53;4.80;;;4.50;;
38611;SDS011;24368;52.156;20.788;2023-07-16T08:11:55;6.60;;;6.10;;
38611;SDS011;24368;52.156;20.788;2023-07-16T08:16:56;5.60;;;5.20;;
38611;SDS011;24368;52.156;20.788;2023-07-16T08:21:57;7.00;;;6.00;;
38611;SDS011;24368;52.156;20.788;2023-07-16T08:26:58;5.10;;;4.80;;
38611;SDS011;24368;52.156;20.788;2023-07-16T08:31:59;7.10;;;6.10;;
38611;SDS011;24368;52.156;20.788;2023-07-16T08:37:00;6.70;;;6.20;;
38611;SDS011;24368;52.156;20.788;2023-07-16T08:42:01;6.40;;;5.80;;
38611;SDS011;24368;52.156;20.788;2023-07-16T08:47:04;8.10;;;7.50;;
38611;SDS011;24368;52.156;20.788;2023-07-16T08:52:07;6.20;;;5.50;;
38611;SDS011;24368;52.156;20.788;2023-07-16T08:57:10;6.30;;;5.70;;
38611;SDS011;24368;52.156;20.788;2023-07-16T09:02:11;6.60;;;5.80;;
38611;SDS011;24368;52.156;20.788;2023-07-16T09:07:14;8.00;;;5.00;;
38611;SDS011;24368;52.156;20.788;2023-07-16T09:12:18;5.80;;;5.30;;
38611;SDS011;24368;52.156;20.788;2023-07-16T09:17:21;5.60;;;5.20;;
38611;SDS011;24368;52.156;20.788;2023-07-16T09:22:23;6.20;;;5.60;;
38611;SDS011;24368;52.156;20.788;2023-07-16T09:27:28;7.80;;;5.40;;
38611;SDS011;24368;52.156;20.788;2023-07-16T09:32:33;6.40;;;5.90;;
38611;SDS011;24368;52.156;20.788;2023-07-16T09:37:39;5.30;;;4.90;;
38611;SDS011;24368;52.156;20.788;2023-07-16T09:42:41;5.60;;;5.10;;
38611;SDS011;24368;52.156;20.788;2023-07-16T09:47:43;6.70;;;6.10;;
38611;SDS011;24368;52.156;20.788;2023-07-16T09:52:45;6.00;;;5.60;;
38611;SDS011;24368;52.156;20.788;2023-07-16T09:57:48;6.00;;;5.60;;
38611;SDS011;24368;52.156;20.788;2023-07-16T10:02:51;6.40;;;5.90;;
38611;SDS011;24368;52.156;20.788;2023-07-16T10:07:57;7.20;;;6.60;;
38611;SDS011;24368;52.156;20.788;2023-07-16T10:13:03;6.60;;;6.00;;
38611;SDS011;24368;52.156;20.788;2023-07-16T10:18:04;7.00;;;6.30;;
38611;SDS011;24368;52.156;20.788;2023-07-16T10:23:11;6.60;;;6.20;;
38611;SDS011;24368;52.156;20.788;2023-07-16T10:28:14;7.00;;;6.40;;
38611;SDS011;24368;52.156;20.788;2023-07-16T10:33:15;6.30;;;5.80;;
38611;SDS011;24368;52.156;20.788;2023-07-16T10:38:17;7.20;;;5.80;;
38611;SDS011;24368;52.156;20.788;2023-07-16T10:43:18;6.40;;;5.80;;
38611;SDS011;24368;52.156;20.788;2023-07-16T10:48:24;7.80;;;7.10;;
38611;SDS011;24368;52.156;20.788;2023-07-16T10:53:25;5.90;;;5.40;;
38611;SDS011;24368;52.156;20.788;2023-07-16T10:58:26;5.90;;;5.40;;
38611;SDS011;24368;52.156;20.788;2023-07-16T11:03:27;6.30;;;5.70;;
38611;SDS011;24368;52.156;20.788;2023-07-16T11:08:29;5.70;;;5.20;;
38611;SDS011;24368;52.156;20.788;2023-07-16T11:13:33;7.40;;;5.50;;
38611;SDS011;24368;52.156;20.788;2023-07-16T11:18:34;6.10;;;5.40;;
38611;SDS011;24368;52.156;20.788;2023-07-16T11:23:36;6.20;;;5.80;;
38611;SDS011;24368;52.156;20.788;2023-07-16T11:28:40;6.70;;;6.20;;
38611;SDS011;24368;52.156;20.788;2023-07-16T11:33:43;6.40;;;6.00;;
38611;SDS011;24368;52.156;20.788;2023-07-16T11:38:44;7.50;;;7.00;;
38611;SDS011;24368;52.156;20.788;2023-07-16T11:43:45;5.70;;;5.20;;
38611;SDS011;24368;52.156;20.788;2023-07-16T11:48:47;6.70;;;6.20;;
38611;SDS011;24368;52.156;20.788;2023-07-16T11:53:48;5.80;;;5.30;;
38611;SDS011;24368;52.156;20.788;2023-07-16T11:58:49;5.50;;;5.10;;
38611;SDS011;24368;52.156;20.788;2023-07-16T12:03:50;5.60;;;5.10;;
38611;SDS011;24368;52.156;20.788;2023-07-16T12:08:51;4.50;;;4.10;;
38611;SDS011;24368;52.156;20.788;2023-07-16T12:13:52;5.20;;;4.60;;
38611;SDS011;24368;52.156;20.788;2023-07-16T12:18:53;4.60;;;4.30;;
38611;SDS011;24368;52.156;20.788;2023-07-16T12:23:55;4.60;;;4.30;;
38611;SDS011;24368;52.156;20.788;2023-07-16T12:28:56;5.20;;;4.80;;
38611;SDS011;24368;52.156;20.788;2023-07-16T12:33:57;5.80;;;4.00;;
38611;SDS011;24368;52.156;20.788;2023-07-16T12:38:59;5.00;;;4.60;;
38611;SDS011;24368;52.156;20.788;2023-07-16T12:44:01;3.70;;;3.40;;
38611;SDS011;24368;52.156;20.788;2023-07-16T12:49:02;4.50;;;4.20;;
38611;SDS011;24368;52.156;20.788;2023-07-16T12:54:03;3.80;;;3.50;;
38611;SDS011;24368;52.156;20.788;2023-07-16T12:59:04;4.20;;;3.80;;
38611;SDS011;24368;52.156;20.788;2023-07-16T13:04:05;3.80;;;3.50;;
38611;SDS011;24368;52.156;20.788;2023-07-16T13:09:06;3.40;;;3.10;;
38611;SDS011;24368;52.156;20.788;2023-07-16T13:14:08;3.00;;;2.80;;
38611;SDS011;24368;52.156;20.788;2023-07-16T13:19:09;4.00;;;3.00;;
38611;SDS011;24368;52.156;20.788;2023-07-16T13:24:10;3.40;;;3.20;;
38611;SDS011;24368;52.156;20.788;2023-07-16T13:29:11;4.10;;;3.70;;
38611;SDS011;24368;52.156;20.788;2023-07-16T13:34:12;5.40;;;3.90;;
38611;SDS011;24368;52.156;20.788;2023-07-16T13:39:13;3.60;;;3.30;;
38611;SDS011;24368;52.156;20.788;2023-07-16T13:44:15;3.50;;;3.20;;
38611;SDS011;24368;52.156;20.788;2023-07-16T13:49:16;3.50;;;3.20;;
38611;SDS011;24368;52.156;20.788;2023-07-16T13:54:17;3.40;;;3.20;;
38611;SDS011;24368;52.156;20.788;2023-07-16T13:59:18;4.50;;;4.10;;
38611;SDS011;24368;52.156;20.788;2023-07-16T14:04:19;3.30;;;3.10;;
38611;SDS011;24368;52.156;20.788;2023-07-16T14:09:20;4.10;;;2.90;;
38611;SDS011;24368;52.156;20.788;2023-07-16T14:14:22;3.20;;;3.00;;
38611;SDS011;24368;52.156;20.788;2023-07-16T14:19:24;3.30;;;3.00;;
38611;SDS011;24368;52.156;20.788;2023-07-16T14:24:26;3.20;;;2.80;;
38611;SDS011;24368;52.156;20.788;2023-07-16T14:29:27;3.50;;;2.90;;
38611;SDS011;24368;52.156;20.788;2023-07-16T14:34:30;2.50;;;2.30;;
38611;SDS011;24368;52.156;20.788;2023-07-16T14:39:31;6.00;;;2.60;;
38611;SDS011;24368;52.156;20.788;2023-07-16T14:44:32;4.40;;;2.20;;
38611;SDS011;24368;52.156;20.788;2023-07-16T14:49:33;3.60;;;2.40;;
38611;SDS011;24368;52.156;20.788;2023-07-16T14:54:34;5.10;;;4.70;;
38611;SDS011;24368;52.156;20.788;2023-07-16T14:59:36;3.40;;;2.80;;
38611;SDS011;24368;52.156;20.788;2023-07-16T15:04:38;2.60;;;2.40;;
38611;SDS011;24368;52.156;20.788;2023-07-16T15:09:39;3.70;;;2.80;;
38611;SDS011;24368;52.156;20.788;2023-07-16T15:14:40;2.30;;;2.10;;
38611;SDS011;24368;52.156;20.788;2023-07-16T15:19:42;2.00;;;1.90;;
38611;SDS011;24368;52.156;20.788;2023-07-16T15:24:43;3.60;;;1.80;;
38611;SDS011;24368;52.156;20.788;2023-07-16T15:29:44;4.40;;;2.10;;
38611;SDS011;24368;52.156;20.788;2023-07-16T15:34:48;2.70;;;2.40;;
38611;SDS011;24368;52.156;20.788;2023-07-16T15:39:49;3.20;;;2.90;;
38611;SDS011;24368;52.156;20.788;2023-07-16T15:44:50;3.00;;;2.80;;
38611;SDS011;24368;52.156;20.788;2023-07-16T15:49:51;3.00;;;2.60;;
38611;SDS011;24368;52.156;20.788;2023-07-16T15:54:52;3.00;;;1.70;;
38611;SDS011;24368;52.156;20.788;2023-07-16T15:59:54;5.30;;;4.90;;
38611;SDS011;24368;52.156;20.788;2023-07-16T16:04:55;3.30;;;3.00;;
38611;SDS011;24368;52.156;20.788;2023-07-16T16:09:56;4.00;;;2.30;;
38611;SDS011;24368;52.156;20.788;2023-07-16T16:14:57;4.00;;;2.90;;
38611;SDS011;24368;52.156;20.788;2023-07-16T16:19:58;3.40;;;3.10;;
38611;SDS011;24368;52.156;20.788;2023-07-16T16:24:59;2.40;;;2.00;;
38611;SDS011;24368;52.156;20.788;2023-07-16T16:30:02;1.80;;;1.60;;
38611;SDS011;24368;52.156;20.788;2023-07-16T16:35:05;2.90;;;2.10;;
38611;SDS011;24368;52.156;20.788;2023-07-16T16:40:07;2.40;;;2.20;;
38611;SDS011;24368;52.156;20.788;2023-07-16T16:45:10;2.70;;;2.60;;
38611;SDS011;24368;52.156;20.788;2023-07-16T16:50:12;3.50;;;3.30;;
38611;SDS011;24368;52.156;20.788;2023-07-16T16:55:15;4.50;;;2.60;;
38611;SDS011;24368;52.156;20.788;2023-07-16T17:00:17;3.80;;;2.80;;
38611;SDS011;24368;52.156;20.788;2023-07-16T17:05:19;3.10;;;2.80;;
38611;SDS011;24368;52.156;20.788;2023-07-16T17:10:20;5.40;;;5.00;;
38611;SDS011;24368;52.156;20.788;2023-07-16T17:15:21;3.30;;;3.00;;
38611;SDS011;24368;52.156;20.788;2023-07-16T17:20:22;3.50;;;2.50;;
38611;SDS011;24368;52.156;20.788;2023-07-16T17:25:23;2.20;;;2.10;;
38611;SDS011;24368;52.156;20.788;2023-07-16T17:30:25;2.30;;;2.10;;
38611;SDS011;24368;52.156;20.788;2023-07-16T17:35:26;3.20;;;2.30;;
38611;SDS011;24368;52.156;20.788;2023-07-16T17:40:27;2.50;;;1.90;;
38611;SDS011;24368;52.156;20.788;2023-07-16T17:45:29;1.60;;;1.50;;
38611;SDS011;24368;52.156;20.788;2023-07-16T17:50:30;1.50;;;1.50;;
38611;SDS011;24368;52.156;20.788;2023-07-16T17:55:31;2.90;;;2.20;;
38611;SDS011;24368;52.156;20.788;2023-07-16T18:00:33;3.50;;;1.90;;
38611;SDS011;24368;52.156;20.788;2023-07-16T18:05:34;1.80;;;1.70;;
38611;SDS011;24368;52.156;20.788;2023-07-16T18:10:35;2.50;;;2.10;;
38611;SDS011;24368;52.156;20.788;2023-07-16T18:15:36;3.00;;;1.80;;
38611;SDS011;24368;52.156;20.788;2023-07-16T18:25:42;1.80;;;1.60;;
38611;SDS011;24368;52.156;20.788;2023-07-16T18:30:43;2.10;;;2.00;;
38611;SDS011;24368;52.156;20.788;2023-07-16T18:35:44;2.90;;;1.50;;
38611;SDS011;24368;52.156;20.788;2023-07-16T18:40:47;1.80;;;1.70;;
38611;SDS011;24368;52.156;20.788;2023-07-16T18:45:48;1.80;;;1.70;;
38611;SDS011;24368;52.156;20.788;2023-07-16T18:50:49;2.50;;;1.70;;
38611;SDS011;24368;52.156;20.788;2023-07-16T18:55:51;3.50;;;1.80;;
38611;SDS011;24368;52.156;20.788;2023-07-16T19:00:52;1.90;;;1.70;;
38611;SDS011;24368;52.156;20.788;2023-07-16T19:05:54;1.90;;;1.60;;
38611;SDS011;24368;52.156;20.788;2023-07-16T19:10:55;1.50;;;1.40;;
38611;SDS011;24368;52.156;20.788;2023-07-16T19:15:56;2.20;;;1.80;;
38611;SDS011;24368;52.156;20.788;2023-07-16T19:20:57;2.00;;;1.90;;
38611;SDS011;24368;52.156;20.788;2023-07-16T19:25:58;2.00;;;1.90;;
38611;SDS011;24368;52.156;20.788;2023-07-16T19:31:00;1.90;;;1.70;;
38611;SDS011;24368;52.156;20.788;2023-07-16T19:36:01;2.60;;;2.40;;
38611;SDS011;24368;52.156;20.788;2023-07-16T19:41:02;2.60;;;2.40;;
38611;SDS011;24368;52.156;20.788;2023-07-16T19:46:05;2.60;;;1.90;;
38611;SDS011;24368;52.156;20.788;2023-07-16T19:51:06;3.10;;;2.90;;
38611;SDS011;24368;52.156;20.788;2023-07-16T19:56:08;2.50;;;2.30;;
38611;SDS011;24368;52.156;20.788;2023-07-16T20:01:09;2.80;;;2.60;;
38611;SDS011;24368;52.156;20.788;2023-07-16T20:06:11;2.50;;;2.00;;
38611;SDS011;24368;52.156;20.788;2023-07-16T20:11:12;3.70;;;2.10;;
38611;SDS011;24368;52.156;20.788;2023-07-16T20:16:13;2.00;;;1.80;;
38611;SDS011;24368;52.156;20.788;2023-07-16T20:21:14;3.20;;;2.60;;
38611;SDS011;24368;52.156;20.788;2023-07-16T20:26:22;3.20;;;2.10;;
38611;SDS011;24368;52.156;20.788;2023-07-16T20:31:25;3.80;;;2.20;;
38611;SDS011;24368;52.156;20.788;2023-07-16T20:36:26;3.50;;;3.00;;
38611;SDS011;24368;52.156;20.788;2023-07-16T20:41:27;2.80;;;2.40;;
38611;SDS011;24368;52.156;20.788;2023-07-16T20:46:28;2.40;;;2.30;;
38611;SDS011;24368;52.156;20.788;2023-07-16T20:51:30;2.20;;;2.10;;
38611;SDS011;24368;52.156;20.788;2023-07-16T20:56:31;2.80;;;2.20;;
38611;SDS011;24368;52.156;20.788;2023-07-16T21:01:32;3.00;;;2.80;;
38611;SDS011;24368;52.156;20.788;2023-07-16T21:06:33;3.60;;;2.60;;
38611;SDS011;24368;52.156;20.788;2023-07-16T21:11:34;2.70;;;2.50;;
38611;SDS011;24368;52.156;20.788;2023-07-16T21:16:35;4.90;;;3.90;;
38611;SDS011;24368;52.156;20.788;2023-07-16T21:21:36;3.60;;;2.60;;
38611;SDS011;24368;52.156;20.788;2023-07-16T21:26:37;2.70;;;2.50;;
38611;SDS011;24368;52.156;20.788;2023-07-16T21:31:38;2.60;;;2.40;;
38611;SDS011;24368;52.156;20.788;2023-07-16T21:36:39;2.40;;;2.20;;
38611;SDS011;24368;52.156;20.788;2023-07-16T21:41:41;4.00;;;3.40;;
38611;SDS011;24368;52.156;20.788;2023-07-16T21:46:42;2.60;;;2.40;;
38611;SDS011;24368;52.156;20.788;2023-07-16T21:51:43;3.10;;;1.90;;
38611;SDS011;24368;52.156;20.788;2023-07-16T21:56:45;2.30;;;2.10;;
38611;SDS011;24368;52.156;20.788;2023-07-16T22:01:46;2.30;;;1.90;;
38611;SDS011;24368;52.156;20.788;2023-07-16T22:06:47;2.70;;;2.50;;
38611;SDS011;24368;52.156;20.788;2023-07-16T22:11:48;2.40;;;2.30;;
38611;SDS011;24368;52.156;20.788;2023-07-16T22:16:49;2.70;;;2.50;;
38611;SDS011;24368;52.156;20.788;2023-07-16T22:21:50;2.20;;;2.00;;
38611;SDS011;24368;52.156;20.788;2023-07-16T22:26:52;2.80;;;2.60;;
38611;SDS011;24368;52.156;20.788;2023-07-16T22:31:53;2.80;;;2.60;;
38611;SDS011;24368;52.156;20.788;2023-07-16T22:36:54;2.50;;;2.30;;
38611;SDS011;24368;52.156;20.788;2023-07-16T22:41:55;3.20;;;2.80;;
38611;SDS011;24368;52.156;20.788;2023-07-16T22:46:56;2.40;;;2.20;;
38611;SDS011;24368;52.156;20.788;2023-07-16T22:51:57;3.30;;;2.70;;
38611;SDS011;24368;52.156;20.788;2023-07-16T22:56:58;3.20;;;2.60;;
38611;SDS011;24368;52.156;20.788;2023-07-16T23:02:00;2.80;;;2.60;;
38611;SDS011;24368;52.156;20.788;2023-07-16T23:07:01;3.00;;;2.70;;
38611;SDS011;24368;52.156;20.788;2023-07-16T23:12:03;3.40;;;2.70;;
38611;SDS011;24368;52.156;20.788;2023-07-16T23:17:05;3.10;;;2.80;;
38611;SDS011;24368;52.156;20.788;2023-07-16T23:22:06;2.80;;;2.60;;
38611;SDS011;24368;52.156;20.788;2023-07-16T23:27:08;3.50;;;3.20;;
38611;SDS011;24368;52.156;20.788;2023-07-16T23:32:09;3.40;;;2.60;;
38611;SDS011;24368;52.156;20.788;2023-07-16T23:37:10;2.70;;;2.50;;
38611;SDS011;24368;52.156;20.788;2023-07-16T23:42:11;3.20;;;3.00;;
38611;SDS011;24368;52.156;20.788;2023-07-16T23:47:12;3.50;;;2.50;;
38611;SDS011;24368;52.156;20.788;2023-07-16T23:52:13;3.80;;;2.60;;
38611;SDS011;24368;52.156;20.788;2023-07-16T23:57:14;2.70;;;2.60;;
